Stations météo

réclame
Mon MeteoGroup
Adra, Espagne (8486): Température de l'air & dewpoint: 11.02.2019 13:00:00 - 17.02.2019 13:00:00 (CET)Adra, Espagne (8486): Vitesse du vent & gusts: 11.02.2019 13:00:00 - 17.02.2019 13:00:00 (CET)Adra, Espagne (8486): Direction du vent: 11.02.2019 13:00:00 - 17.02.2019 13:00:00 (CET)Adra, Espagne (8486): reduced air pressure: 11.02.2019 13:00:00 - 17.02.2019 13:00:00 (CET)Adra, Espagne (8486): Quantités de précipitations: 11.02.2019 13:00:00 - 17.02.2019 13:00:00 (CET)
Date & Time tt [°C] td [°C] ff [km/h] ff [knt] fx [km/h] fx [knt] dd ppp [hPa] rr [mm]
17.02.2019 13:00:00 - - - - - - - - -
17.02.2019 12:00:00 - - - - - - - - -
17.02.2019 11:00:00 - - - - - - - - -
17.02.2019 10:00:00 - - - - - - - - -
17.02.2019 09:00:00 - - - - - - - - -
17.02.2019 08:00:00 - - - - - - - - -
17.02.2019 07:00:00 - - - - - - - - -
17.02.2019 06:00:00 - - - - - - - - -
17.02.2019 05:00:00 - - - - - - - - -
17.02.2019 04:00:00 - - - - - - - - -
17.02.2019 03:00:00 - - - - - - - - -
17.02.2019 02:00:00 - - - - - - - - -
17.02.2019 01:00:00 - - - - - - - - -
17.02.2019 00:00:00 - - - - - - - - -
16.02.2019 23:00:00 - - - - - - - - -
16.02.2019 22:00:00 - - - - - - - - -
16.02.2019 21:00:00 13,6 8,8 12 6 26 14 ENE 1026,0 0,0
16.02.2019 20:00:00 14,0 9,2 13 7 34 18 ENE 1025,7 0,0
16.02.2019 19:00:00 14,4 9,4 14 8 30 16 ENE 1025,5 -
16.02.2019 18:00:00 15,7 9,2 10 5 28 15 E 1024,6 0,0
16.02.2019 17:00:00 16,2 10,0 10 5 29 15 E 1024,6 0,0
16.02.2019 16:00:00 16,2 10,0 11 6 35 19 E 1023,7 0,0
16.02.2019 15:00:00 17,7 8,5 13 7 39 21 E 1023,4 0,0
16.02.2019 14:00:00 17,8 8,1 14 7 37 20 E 1023,7 0,0
16.02.2019 13:00:00 17,8 7,3 14 8 35 19 E 1024,8 -
16.02.2019 12:00:00 17,9 7,3 11 6 35 19 E 1025,4 0,0
16.02.2019 11:00:00 16,8 6,5 17 9 29 16 ESE 1025,5 0,0
16.02.2019 10:00:00 16,2 6,5 10 5 23 12 ESE 1025,1 0,0
16.02.2019 09:00:00 16,2 1,5 13 7 19 11 E 1024,9 0,0
16.02.2019 08:00:00 14,4 0,2 8 5 21 12 ENE 1025,4 0,0
16.02.2019 07:00:00 15,0 0,9 7 4 21 12 NE 1024,6 -
16.02.2019 06:00:00 15,4 1,1 9 5 22 12 NNE 1024,4 0,0
16.02.2019 05:00:00 15,1 1,3 8 4 25 13 NNE 1024,4 0,0
16.02.2019 04:00:00 14,1 2,1 5 3 16 9 ENE 1024,8 0,0
16.02.2019 03:00:00 12,0 3,9 7 4 15 8 E 1025,3 0,0
16.02.2019 02:00:00 11,3 6,1 5 3 10 6 ENE 1025,8 0,0
16.02.2019 01:00:00 12,1 8,4 3 2 8 4 ENE 1026,3 -
16.02.2019 00:00:00 12,0 8,3 1 1 6 3 NNE 1026,7 0,0
15.02.2019 23:00:00 12,1 8,3 3 2 6 3 N 1026,7 0,0
15.02.2019 22:00:00 12,7 8,5 1 0 5 3 N 1026,5 0,0
15.02.2019 21:00:00 13,3 8,8 1 1 10 5 ENE 1026,2 0,0
15.02.2019 20:00:00 14,5 9,3 7 4 19 11 E 1026,1 0,0
15.02.2019 19:00:00 14,7 9,6 8 4 20 11 E 1026,1 -
15.02.2019 18:00:00 15,6 9,0 9 5 26 14 E 1026,2 0,0
15.02.2019 17:00:00 16,2 9,6 14 7 30 16 ESE 1025,5 0,0
15.02.2019 16:00:00 15,5 10,5 16 9 29 16 ESE 1025,9 0,0
15.02.2019 15:00:00 15,3 10,3 18 10 30 16 ESE 1026,7 0,0
15.02.2019 14:00:00 15,6 9,7 16 9 26 14 ESE 1027,5 0,0
15.02.2019 13:00:00 15,6 8,8 14 8 25 14 ESE 1029,0 -
15.02.2019 12:00:00 15,0 8,5 10 6 22 12 ESE 1030,3 0,0
15.02.2019 11:00:00 14,1 9,2 10 5 18 10 ESE 1030,5 0,0
15.02.2019 10:00:00 14,1 7,0 4 2 9 5 E 1030,6 0,0
15.02.2019 09:00:00 13,3 8,4 3 2 9 5 NNE 1030,6 0,0
15.02.2019 08:00:00 10,8 7,4 3 1 7 4 NNE 1031,1 0,0
15.02.2019 07:00:00 10,7 8,3 2 1 8 4 NNE 1030,9 -
15.02.2019 06:00:00 10,8 7,4 4 2 9 5 ENE 1031,2 0,0
15.02.2019 05:00:00 10,7 8,1 2 1 6 3 NE 1030,9 0,0
15.02.2019 04:00:00 11,0 8,0 2 1 5 3 NNE 1030,8 0,0
15.02.2019 03:00:00 11,2 8,3 1 1 6 3 NNE 1031,1 0,0
15.02.2019 02:00:00 11,3 8,4 1 1 4 2 NNE 1031,8 0,0
15.02.2019 01:00:00 11,6 8,7 0 0 5 3 NNE 1032,2 -
15.02.2019 00:00:00 11,9 8,5 0 0 5 3 N 1032,4 0,0
14.02.2019 23:00:00 12,3 8,9 3 1 5 3 N 1032,3 0,0
14.02.2019 22:00:00 13,2 9,0 0 0 4 2 NW 1032,5 0,0
14.02.2019 21:00:00 13,6 9,0 2 1 9 5 ENE 1032,3 0,0
14.02.2019 20:00:00 13,8 9,0 3 2 10 6 ENE 1032,0 0,0
14.02.2019 19:00:00 14,2 9,8 1 1 14 8 NNE 1031,7 -
14.02.2019 18:00:00 14,8 10,4 8 4 21 12 SE 1031,4 0,0
14.02.2019 17:00:00 14,9 9,7 11 6 24 13 ESE 1031,3 0,0
14.02.2019 16:00:00 15,0 9,6 14 8 26 14 ESE 1031,1 0,0
14.02.2019 15:00:00 14,9 9,4 16 9 24 13 ESE 1031,7 0,0
14.02.2019 14:00:00 15,3 9,4 10 5 21 12 SE 1032,2 0,0
14.02.2019 13:00:00 16,7 7,6 3 2 13 7 WSW 1032,9 -
14.02.2019 12:00:00 15,7 6,4 5 3 13 7 SSW 1034,2 0,0
14.02.2019 11:00:00 16,1 5,1 4 2 11 6 SSW 1033,6 0,0
14.02.2019 10:00:00 14,5 2,7 6 3 12 7 ENE 1033,7 0,0
14.02.2019 09:00:00 13,4 3,2 4 2 18 10 NNE 1033,3 0,0
14.02.2019 08:00:00 10,5 4,6 3 2 11 6 NNE 1033,9 0,0
14.02.2019 07:00:00 10,3 5,9 5 3 9 5 N 1033,7 -
14.02.2019 06:00:00 10,0 5,0 3 2 16 9 N 1033,7 0,0
14.02.2019 05:00:00 10,0 5,9 2 1 8 4 ENE 1033,2 0,0
14.02.2019 04:00:00 10,0 5,9 0 0 7 4 N 1033,0 0,0
14.02.2019 03:00:00 10,2 6,1 4 2 7 4 N 1033,1 0,0
14.02.2019 02:00:00 10,8 6,1 2 1 7 4 N 1033,2 0,0
14.02.2019 01:00:00 11,5 6,2 1 1 8 5 NE 1033,1 -
14.02.2019 00:00:00 11,8 6,2 2 1 15 8 NNE 1032,9 0,0
13.02.2019 23:00:00 11,8 6,7 4 2 13 7 ENE 1032,9 0,0
13.02.2019 22:00:00 12,2 7,3 4 2 14 7 ENE 1033,0 0,0
13.02.2019 21:00:00 12,8 7,8 7 4 19 10 ENE 1032,5 0,0
13.02.2019 20:00:00 13,3 7,7 8 4 20 11 ENE 1032,0 0,0
13.02.2019 19:00:00 14,1 7,0 8 4 26 14 ENE 1031,4 -
13.02.2019 18:00:00 15,2 6,7 9 5 24 13 E 1030,9 0,0
13.02.2019 17:00:00 16,1 7,0 12 6 24 13 E 1030,2 0,0
13.02.2019 16:00:00 16,5 8,5 13 7 31 17 ESE 1029,6 0,0
13.02.2019 15:00:00 15,3 8,9 18 10 32 18 ESE 1030,2 0,0
13.02.2019 14:00:00 15,3 8,5 19 10 31 17 ESE 1031,1 0,0
13.02.2019 13:00:00 - - - - - - - - -
13.02.2019 12:00:00 15,9 6,4 14 8 24 13 ESE 1031,9 0,0
13.02.2019 11:00:00 15,7 5,3 10 5 23 12 ESE 1031,6 0,0
13.02.2019 10:00:00 14,3 3,4 7 4 21 12 NNE 1031,6 0,0
13.02.2019 09:00:00 12,3 2,1 8 4 20 11 NNE 1032,5 0,0
13.02.2019 08:00:00 11,0 2,3 3 1 12 7 ENE 1032,5 0,0
13.02.2019 07:00:00 11,1 3,2 3 1 11 6 ENE 1032,1 -
13.02.2019 06:00:00 11,1 3,2 3 1 12 6 NNE 1032,1 0,0
13.02.2019 05:00:00 11,6 3,8 4 2 14 8 NNE 1032,0 0,0
13.02.2019 04:00:00 11,4 4,3 3 2 18 10 NE 1032,1 0,0
13.02.2019 03:00:00 11,4 4,8 8 4 17 9 ENE 1032,6 0,0
13.02.2019 02:00:00 11,8 5,1 6 3 21 11 NNE 1033,1 0,0
13.02.2019 01:00:00 11,9 5,5 11 6 24 13 ENE 1033,4 -
13.02.2019 00:00:00 12,2 6,2 3 1 11 6 NE 1033,8 0,0
12.02.2019 23:00:00 12,3 6,8 0 0 17 9 NE 1034,0 0,0
12.02.2019 22:00:00 12,0 6,5 4 2 16 9 ENE 1033,9 0,0
12.02.2019 21:00:00 13,5 8,4 6 3 17 9 ENE 1033,5 0,0
12.02.2019 20:00:00 13,7 8,5 5 3 16 9 ENE 1033,4 0,0
12.02.2019 19:00:00 14,5 6,8 5 3 19 10 ENE 1033,0 -
12.02.2019 18:00:00 15,3 7,8 8 4 27 14 E 1032,5 0,0
12.02.2019 17:00:00 15,4 9,6 15 8 26 14 ESE 1032,1 0,0
12.02.2019 16:00:00 16,0 10,5 15 8 33 18 ESE 1031,7 0,0
12.02.2019 15:00:00 15,3 10,0 19 10 35 19 ESE 1031,4 0,0
12.02.2019 14:00:00 15,5 8,9 21 11 35 19 ESE 1031,7 0,0
12.02.2019 13:00:00 - - - - - - - - -
12.02.2019 12:00:00 17,0 7,3 11 6 30 16 ESE 1032,7 0,0
12.02.2019 11:00:00 16,1 7,3 9 5 26 14 E 1032,8 0,0
12.02.2019 10:00:00 15,3 8,5 8 4 18 10 E 1032,5 0,0
12.02.2019 09:00:00 14,5 7,3 4 2 18 10 ENE 1032,5 0,0
12.02.2019 08:00:00 14,1 6,4 3 2 14 8 ENE 1031,8 0,0
12.02.2019 07:00:00 13,6 8,8 5 3 12 7 ENE 1031,2 -
12.02.2019 06:00:00 12,8 7,8 5 3 14 8 ENE 1030,7 0,0
12.02.2019 05:00:00 13,0 8,7 3 2 15 8 ENE 1030,4 0,0
12.02.2019 04:00:00 11,9 7,3 4 2 13 7 ENE 1030,5 0,0
12.02.2019 03:00:00 13,5 8,1 5 3 14 8 ENE 1030,5 0,0
12.02.2019 02:00:00 12,6 6,7 4 2 11 6 ENE 1030,4 0,0
12.02.2019 01:00:00 13,6 8,0 1 1 8 4 ENE 1030,3 -
12.02.2019 00:00:00 14,6 7,8 4 2 14 8 ENE 1030,2 0,0
11.02.2019 23:00:00 14,9 7,0 3 1 8 5 NE 1029,5 0,0
11.02.2019 22:00:00 14,6 7,8 1 1 5 3 N 1029,2 0,0
11.02.2019 21:00:00 15,4 8,0 0 0 5 3 ENE 1028,6 0,0
11.02.2019 20:00:00 15,4 7,7 0 0 3 2 NNW 1028,0 0,0
11.02.2019 19:00:00 16,8 7,1 0 0 7 4 NNE 1027,5 -
11.02.2019 18:00:00 18,7 7,7 0 0 5 3 SSW 1025,9 0,0
11.02.2019 17:00:00 20,1 8,4 1 0 8 4 SW 1025,0 0,0
11.02.2019 16:00:00 18,0 11,3 5 3 12 6 WSW 1025,2 0,0
11.02.2019 15:00:00 17,8 11,1 5 3 11 6 SW 1025,3 0,0
11.02.2019 14:00:00 19,3 10,3 4 2 12 7 SW 1025,7 0,0
11.02.2019 13:00:00 18,0 10,4 4 2 10 6 SW 1026,9 -

tt = Température de l'air
td = dewpoint
ff = Vitesse du vent
fx = gusts
dd = Direction du vent
ppp = reduced air pressure
rr = Quantités de précipitations

stations d'obs. à proximité